sensor_id;sensor_type;location;lat;lon;timestamp;temperature;humidity
19348;DHT22;9810;52.480;9.806;2022-10-01T00:01:20;10.50;99.90
19348;DHT22;9810;52.480;9.806;2022-10-01T00:03:50;10.40;99.90
19348;DHT22;9810;52.480;9.806;2022-10-01T00:06:19;10.50;99.90
19348;DHT22;9810;52.480;9.806;2022-10-01T00:08:49;10.40;99.90
19348;DHT22;9810;52.480;9.806;2022-10-01T00:11:19;10.30;99.90
19348;DHT22;9810;52.480;9.806;2022-10-01T00:13:49;10.30;99.90
19348;DHT22;9810;52.480;9.806;2022-10-01T00:16:18;10.10;99.90
19348;DHT22;9810;52.480;9.806;2022-10-01T00:18:47;10.10;99.90
19348;DHT22;9810;52.480;9.806;2022-10-01T00:21:19;10.30;99.90
19348;DHT22;9810;52.480;9.806;2022-10-01T00:23:52;10.40;99.90
19348;DHT22;9810;52.480;9.806;2022-10-01T00:26:21;10.50;99.90
19348;DHT22;9810;52.480;9.806;2022-10-01T00:28:53;10.40;99.90
19348;DHT22;9810;52.480;9.806;2022-10-01T00:31:21;10.50;99.90
19348;DHT22;9810;52.480;9.806;2022-10-01T00:33:51;10.40;99.90
19348;DHT22;9810;52.480;9.806;2022-10-01T00:36:19;10.50;99.90
19348;DHT22;9810;52.480;9.806;2022-10-01T00:38:48;10.60;99.90
19348;DHT22;9810;52.480;9.806;2022-10-01T00:41:16;10.70;99.90
19348;DHT22;9810;52.480;9.806;2022-10-01T00:43:46;10.70;99.90
19348;DHT22;9810;52.480;9.806;2022-10-01T00:46:17;10.90;99.90
19348;DHT22;9810;52.480;9.806;2022-10-01T00:48:55;10.90;99.90
19348;DHT22;9810;52.480;9.806;2022-10-01T00:51:26;11.00;99.90
19348;DHT22;9810;52.480;9.806;2022-10-01T00:54:04;11.10;99.90
19348;DHT22;9810;52.480;9.806;2022-10-01T00:56:33;11.00;99.90
19348;DHT22;9810;52.480;9.806;2022-10-01T00:59:00;11.10;99.90
19348;DHT22;9810;52.480;9.806;2022-10-01T01:01:28;11.00;99.90
19348;DHT22;9810;52.480;9.806;2022-10-01T01:03:55;11.00;99.90
19348;DHT22;9810;52.480;9.806;2022-10-01T01:06:23;11.00;99.90
19348;DHT22;9810;52.480;9.806;2022-10-01T01:08:51;10.80;99.90
19348;DHT22;9810;52.480;9.806;2022-10-01T01:11:25;10.80;99.90
19348;DHT22;9810;52.480;9.806;2022-10-01T01:14:00;10.50;99.90
19348;DHT22;9810;52.480;9.806;2022-10-01T01:16:34;10.40;99.90
19348;DHT22;9810;52.480;9.806;2022-10-01T01:19:07;10.50;99.90
19348;DHT22;9810;52.480;9.806;2022-10-01T01:21:42;10.50;99.90
19348;DHT22;9810;52.480;9.806;2022-10-01T01:24:28;10.60;99.90
19348;DHT22;9810;52.480;9.806;2022-10-01T01:27:09;10.60;99.90
19348;DHT22;9810;52.480;9.806;2022-10-01T01:29:47;10.70;99.90
19348;DHT22;9810;52.480;9.806;2022-10-01T01:32:22;10.70;99.90
19348;DHT22;9810;52.480;9.806;2022-10-01T01:34:51;10.80;99.90
19348;DHT22;9810;52.480;9.806;2022-10-01T01:37:23;10.80;99.90
19348;DHT22;9810;52.480;9.806;2022-10-01T01:39:54;10.90;99.90
19348;DHT22;9810;52.480;9.806;2022-10-01T01:42:26;10.90;99.90
19348;DHT22;9810;52.480;9.806;2022-10-01T01:44:58;10.90;99.90
19348;DHT22;9810;52.480;9.806;2022-10-01T01:47:29;10.90;99.90
19348;DHT22;9810;52.480;9.806;2022-10-01T01:50:00;10.90;99.90
19348;DHT22;9810;52.480;9.806;2022-10-01T01:52:29;10.90;99.90
19348;DHT22;9810;52.480;9.806;2022-10-01T01:54:56;10.90;99.90
19348;DHT22;9810;52.480;9.806;2022-10-01T01:57:23;10.90;99.90
19348;DHT22;9810;52.480;9.806;2022-10-01T01:59:53;10.90;99.90
19348;DHT22;9810;52.480;9.806;2022-10-01T02:02:24;11.00;99.90
19348;DHT22;9810;52.480;9.806;2022-10-01T02:04:55;11.00;99.90
19348;DHT22;9810;52.480;9.806;2022-10-01T02:10:31;10.90;99.90
19348;DHT22;9810;52.480;9.806;2022-10-01T02:13:16;10.90;99.90
19348;DHT22;9810;52.480;9.806;2022-10-01T02:15:55;10.90;99.90
19348;DHT22;9810;52.480;9.806;2022-10-01T02:18:29;11.00;99.90
19348;DHT22;9810;52.480;9.806;2022-10-01T02:21:07;11.00;99.90
19348;DHT22;9810;52.480;9.806;2022-10-01T02:23:40;11.00;99.90
19348;DHT22;9810;52.480;9.806;2022-10-01T02:26:11;11.00;99.90
19348;DHT22;9810;52.480;9.806;2022-10-01T02:28:40;10.90;99.90
19348;DHT22;9810;52.480;9.806;2022-10-01T02:31:09;11.00;99.90
19348;DHT22;9810;52.480;9.806;2022-10-01T02:33:40;10.80;99.90
19348;DHT22;9810;52.480;9.806;2022-10-01T02:36:09;10.90;99.90
19348;DHT22;9810;52.480;9.806;2022-10-01T02:38:39;11.00;99.90
19348;DHT22;9810;52.480;9.806;2022-10-01T02:41:09;11.00;99.90
19348;DHT22;9810;52.480;9.806;2022-10-01T02:43:40;11.20;99.90
19348;DHT22;9810;52.480;9.806;2022-10-01T02:46:14;11.20;99.90
19348;DHT22;9810;52.480;9.806;2022-10-01T02:48:43;11.10;99.90
19348;DHT22;9810;52.480;9.806;2022-10-01T02:51:28;11.10;99.90
19348;DHT22;9810;52.480;9.806;2022-10-01T02:54:02;11.20;99.90
19348;DHT22;9810;52.480;9.806;2022-10-01T02:56:32;11.10;99.90
19348;DHT22;9810;52.480;9.806;2022-10-01T02:59:13;11.20;99.90
19348;DHT22;9810;52.480;9.806;2022-10-01T03:01:40;11.10;99.90
19348;DHT22;9810;52.480;9.806;2022-10-01T03:04:09;11.10;99.90
19348;DHT22;9810;52.480;9.806;2022-10-01T03:06:38;11.20;99.90
19348;DHT22;9810;52.480;9.806;2022-10-01T03:09:05;11.20;99.90
19348;DHT22;9810;52.480;9.806;2022-10-01T03:11:33;11.20;99.90
19348;DHT22;9810;52.480;9.806;2022-10-01T03:14:00;11.10;99.90
19348;DHT22;9810;52.480;9.806;2022-10-01T03:16:27;11.20;99.90
19348;DHT22;9810;52.480;9.806;2022-10-01T03:18:54;11.20;99.90
19348;DHT22;9810;52.480;9.806;2022-10-01T03:21:23;11.20;99.90
19348;DHT22;9810;52.480;9.806;2022-10-01T03:23:50;11.20;99.90
19348;DHT22;9810;52.480;9.806;2022-10-01T03:26:17;11.20;99.90
19348;DHT22;9810;52.480;9.806;2022-10-01T03:28:45;11.20;99.90
19348;DHT22;9810;52.480;9.806;2022-10-01T03:31:12;11.30;99.90
19348;DHT22;9810;52.480;9.806;2022-10-01T03:33:39;11.30;99.90
19348;DHT22;9810;52.480;9.806;2022-10-01T03:36:07;11.30;99.90
19348;DHT22;9810;52.480;9.806;2022-10-01T03:38:36;11.30;99.90
19348;DHT22;9810;52.480;9.806;2022-10-01T03:41:03;11.40;99.90
19348;DHT22;9810;52.480;9.806;2022-10-01T03:43:30;11.40;99.90
19348;DHT22;9810;52.480;9.806;2022-10-01T03:45:57;11.50;99.90
19348;DHT22;9810;52.480;9.806;2022-10-01T03:48:26;11.50;99.90
19348;DHT22;9810;52.480;9.806;2022-10-01T03:50:55;11.50;99.90
19348;DHT22;9810;52.480;9.806;2022-10-01T03:53:22;11.50;99.90
19348;DHT22;9810;52.480;9.806;2022-10-01T03:55:52;11.50;99.90
19348;DHT22;9810;52.480;9.806;2022-10-01T03:58:20;11.40;99.90
19348;DHT22;9810;52.480;9.806;2022-10-01T04:00:48;11.50;99.90
19348;DHT22;9810;52.480;9.806;2022-10-01T04:03:16;11.40;99.90
19348;DHT22;9810;52.480;9.806;2022-10-01T04:05:44;11.50;99.90
19348;DHT22;9810;52.480;9.806;2022-10-01T04:08:12;11.40;99.90
19348;DHT22;9810;52.480;9.806;2022-10-01T04:10:40;11.40;99.90
19348;DHT22;9810;52.480;9.806;2022-10-01T04:13:09;11.50;99.90
19348;DHT22;9810;52.480;9.806;2022-10-01T04:15:37;11.50;99.90
19348;DHT22;9810;52.480;9.806;2022-10-01T04:18:05;11.40;99.90
19348;DHT22;9810;52.480;9.806;2022-10-01T04:20:32;11.40;99.90
19348;DHT22;9810;52.480;9.806;2022-10-01T04:23:01;11.40;99.90
19348;DHT22;9810;52.480;9.806;2022-10-01T04:25:29;11.40;99.90
19348;DHT22;9810;52.480;9.806;2022-10-01T04:27:58;11.20;99.90
19348;DHT22;9810;52.480;9.806;2022-10-01T04:30:31;11.30;99.90
19348;DHT22;9810;52.480;9.806;2022-10-01T04:32:59;11.30;99.90
19348;DHT22;9810;52.480;9.806;2022-10-01T04:35:27;11.30;99.90
19348;DHT22;9810;52.480;9.806;2022-10-01T04:37:56;11.30;99.90
19348;DHT22;9810;52.480;9.806;2022-10-01T04:40:23;11.40;99.90
19348;DHT22;9810;52.480;9.806;2022-10-01T04:42:51;11.20;99.90
19348;DHT22;9810;52.480;9.806;2022-10-01T04:45:18;11.20;99.90
19348;DHT22;9810;52.480;9.806;2022-10-01T04:47:51;11.20;99.90
19348;DHT22;9810;52.480;9.806;2022-10-01T04:50:21;11.20;99.90
19348;DHT22;9810;52.480;9.806;2022-10-01T04:52:48;11.10;99.90
19348;DHT22;9810;52.480;9.806;2022-10-01T04:55:16;11.20;99.90
19348;DHT22;9810;52.480;9.806;2022-10-01T04:57:44;11.10;99.90
19348;DHT22;9810;52.480;9.806;2022-10-01T05:00:12;11.00;99.90
19348;DHT22;9810;52.480;9.806;2022-10-01T05:02:42;11.00;99.90
19348;DHT22;9810;52.480;9.806;2022-10-01T05:05:11;10.90;99.90
19348;DHT22;9810;52.480;9.806;2022-10-01T05:07:39;10.90;99.90
19348;DHT22;9810;52.480;9.806;2022-10-01T05:10:07;10.90;99.90
19348;DHT22;9810;52.480;9.806;2022-10-01T05:12:36;10.80;99.90
19348;DHT22;9810;52.480;9.806;2022-10-01T05:15:04;10.70;99.90
19348;DHT22;9810;52.480;9.806;2022-10-01T05:17:31;10.70;99.90
19348;DHT22;9810;52.480;9.806;2022-10-01T05:19:59;10.70;99.90
19348;DHT22;9810;52.480;9.806;2022-10-01T05:22:27;10.50;99.90
19348;DHT22;9810;52.480;9.806;2022-10-01T05:24:57;10.50;99.90
19348;DHT22;9810;52.480;9.806;2022-10-01T05:27:25;10.50;99.90
19348;DHT22;9810;52.480;9.806;2022-10-01T05:29:52;10.50;99.90
19348;DHT22;9810;52.480;9.806;2022-10-01T05:32:21;10.40;99.90
19348;DHT22;9810;52.480;9.806;2022-10-01T05:34:49;10.40;99.90
19348;DHT22;9810;52.480;9.806;2022-10-01T05:37:16;10.40;99.90
19348;DHT22;9810;52.480;9.806;2022-10-01T05:39:45;10.40;99.90
19348;DHT22;9810;52.480;9.806;2022-10-01T05:42:12;10.30;99.90
19348;DHT22;9810;52.480;9.806;2022-10-01T05:44:40;10.30;99.90
19348;DHT22;9810;52.480;9.806;2022-10-01T05:47:11;10.30;99.90
19348;DHT22;9810;52.480;9.806;2022-10-01T05:49:39;10.30;99.90
19348;DHT22;9810;52.480;9.806;2022-10-01T05:52:07;10.30;99.90
19348;DHT22;9810;52.480;9.806;2022-10-01T05:54:34;10.30;99.90
19348;DHT22;9810;52.480;9.806;2022-10-01T05:57:04;10.20;99.90
19348;DHT22;9810;52.480;9.806;2022-10-01T05:59:32;10.30;99.90
19348;DHT22;9810;52.480;9.806;2022-10-01T06:01:59;10.30;99.90
19348;DHT22;9810;52.480;9.806;2022-10-01T06:04:27;10.40;99.90
19348;DHT22;9810;52.480;9.806;2022-10-01T06:06:54;10.40;99.90
19348;DHT22;9810;52.480;9.806;2022-10-01T06:09:24;10.40;99.90
19348;DHT22;9810;52.480;9.806;2022-10-01T06:11:51;10.40;99.90
19348;DHT22;9810;52.480;9.806;2022-10-01T06:14:20;10.30;99.90
19348;DHT22;9810;52.480;9.806;2022-10-01T06:16:51;10.30;99.90
19348;DHT22;9810;52.480;9.806;2022-10-01T06:19:18;10.30;99.90
19348;DHT22;9810;52.480;9.806;2022-10-01T06:21:45;10.30;99.90
19348;DHT22;9810;52.480;9.806;2022-10-01T06:24:13;10.30;99.90
19348;DHT22;9810;52.480;9.806;2022-10-01T06:26:40;10.30;99.90
19348;DHT22;9810;52.480;9.806;2022-10-01T06:29:09;10.30;99.90
19348;DHT22;9810;52.480;9.806;2022-10-01T06:31:38;10.30;99.90
19348;DHT22;9810;52.480;9.806;2022-10-01T06:34:05;10.30;99.90
19348;DHT22;9810;52.480;9.806;2022-10-01T06:36:33;10.30;99.90
19348;DHT22;9810;52.480;9.806;2022-10-01T06:39:00;10.30;99.90
19348;DHT22;9810;52.480;9.806;2022-10-01T06:41:27;10.30;99.90
19348;DHT22;9810;52.480;9.806;2022-10-01T06:43:54;10.30;99.90
19348;DHT22;9810;52.480;9.806;2022-10-01T06:46:22;10.30;99.90
19348;DHT22;9810;52.480;9.806;2022-10-01T06:48:51;10.30;99.90
19348;DHT22;9810;52.480;9.806;2022-10-01T06:51:18;10.30;99.90
19348;DHT22;9810;52.480;9.806;2022-10-01T06:54:09;10.30;99.90
19348;DHT22;9810;52.480;9.806;2022-10-01T06:57:09;10.40;99.90
19348;DHT22;9810;52.480;9.806;2022-10-01T06:59:36;10.50;99.90
19348;DHT22;9810;52.480;9.806;2022-10-01T07:02:04;10.40;99.90
19348;DHT22;9810;52.480;9.806;2022-10-01T07:04:33;10.40;99.90
19348;DHT22;9810;52.480;9.806;2022-10-01T07:07:00;10.50;99.90
19348;DHT22;9810;52.480;9.806;2022-10-01T07:09:27;10.40;99.90
19348;DHT22;9810;52.480;9.806;2022-10-01T07:11:55;10.50;99.90
19348;DHT22;9810;52.480;9.806;2022-10-01T07:14:22;10.50;99.90
19348;DHT22;9810;52.480;9.806;2022-10-01T07:16:49;10.50;99.90
19348;DHT22;9810;52.480;9.806;2022-10-01T07:19:16;10.40;99.90
19348;DHT22;9810;52.480;9.806;2022-10-01T07:21:46;10.60;99.90
19348;DHT22;9810;52.480;9.806;2022-10-01T07:24:14;10.60;99.90
19348;DHT22;9810;52.480;9.806;2022-10-01T07:26:43;10.50;99.90
19348;DHT22;9810;52.480;9.806;2022-10-01T07:29:12;10.50;99.90
19348;DHT22;9810;52.480;9.806;2022-10-01T07:31:39;10.60;99.90
19348;DHT22;9810;52.480;9.806;2022-10-01T07:34:07;10.70;99.90
19348;DHT22;9810;52.480;9.806;2022-10-01T07:36:34;10.80;99.90
19348;DHT22;9810;52.480;9.806;2022-10-01T07:39:03;10.80;99.90
19348;DHT22;9810;52.480;9.806;2022-10-01T07:41:30;10.70;99.90
19348;DHT22;9810;52.480;9.806;2022-10-01T07:43:58;10.70;99.90
19348;DHT22;9810;52.480;9.806;2022-10-01T07:46:25;10.70;99.90
19348;DHT22;9810;52.480;9.806;2022-10-01T07:48:52;10.70;99.90
19348;DHT22;9810;52.480;9.806;2022-10-01T07:51:20;10.70;99.90
19348;DHT22;9810;52.480;9.806;2022-10-01T07:53:47;10.80;99.90
19348;DHT22;9810;52.480;9.806;2022-10-01T07:56:17;10.80;99.90
19348;DHT22;9810;52.480;9.806;2022-10-01T07:58:44;10.80;99.90
19348;DHT22;9810;52.480;9.806;2022-10-01T08:01:12;10.90;99.90
19348;DHT22;9810;52.480;9.806;2022-10-01T08:03:43;10.90;99.90
19348;DHT22;9810;52.480;9.806;2022-10-01T08:06:38;10.90;99.90
19348;DHT22;9810;52.480;9.806;2022-10-01T08:09:14;10.90;99.90
19348;DHT22;9810;52.480;9.806;2022-10-01T08:11:53;10.90;99.90
19348;DHT22;9810;52.480;9.806;2022-10-01T08:14:27;10.90;99.90
19348;DHT22;9810;52.480;9.806;2022-10-01T08:16:55;10.90;99.90
19348;DHT22;9810;52.480;9.806;2022-10-01T08:19:22;11.00;99.90
19348;DHT22;9810;52.480;9.806;2022-10-01T08:21:49;11.00;99.90
19348;DHT22;9810;52.480;9.806;2022-10-01T08:24:17;11.10;99.90
19348;DHT22;9810;52.480;9.806;2022-10-01T08:26:52;11.20;99.90
19348;DHT22;9810;52.480;9.806;2022-10-01T08:29:20;11.30;99.90
19348;DHT22;9810;52.480;9.806;2022-10-01T08:31:48;11.30;99.90
19348;DHT22;9810;52.480;9.806;2022-10-01T08:34:15;11.40;99.90
19348;DHT22;9810;52.480;9.806;2022-10-01T08:36:43;11.30;99.90
19348;DHT22;9810;52.480;9.806;2022-10-01T08:39:10;11.40;99.90
19348;DHT22;9810;52.480;9.806;2022-10-01T08:41:46;11.40;99.90
19348;DHT22;9810;52.480;9.806;2022-10-01T08:44:19;11.40;99.90
19348;DHT22;9810;52.480;9.806;2022-10-01T08:46:48;11.40;99.90
19348;DHT22;9810;52.480;9.806;2022-10-01T08:49:19;11.50;99.90
19348;DHT22;9810;52.480;9.806;2022-10-01T08:51:53;11.50;99.90
19348;DHT22;9810;52.480;9.806;2022-10-01T08:54:29;11.50;99.90
19348;DHT22;9810;52.480;9.806;2022-10-01T08:57:00;11.50;99.90
19348;DHT22;9810;52.480;9.806;2022-10-01T08:59:35;11.60;99.90
19348;DHT22;9810;52.480;9.806;2022-10-01T09:02:16;11.50;99.90
19348;DHT22;9810;52.480;9.806;2022-10-01T09:04:45;11.50;99.90
19348;DHT22;9810;52.480;9.806;2022-10-01T09:10:15;11.40;99.90
19348;DHT22;9810;52.480;9.806;2022-10-01T09:12:50;11.40;99.90
19348;DHT22;9810;52.480;9.806;2022-10-01T09:15:25;11.50;99.90
19348;DHT22;9810;52.480;9.806;2022-10-01T09:18:03;11.50;99.90
19348;DHT22;9810;52.480;9.806;2022-10-01T09:20:35;11.50;99.90
19348;DHT22;9810;52.480;9.806;2022-10-01T09:23:12;11.60;99.90
19348;DHT22;9810;52.480;9.806;2022-10-01T09:25:44;11.60;99.90
19348;DHT22;9810;52.480;9.806;2022-10-01T09:28:18;11.70;99.90
19348;DHT22;9810;52.480;9.806;2022-10-01T09:30:52;11.90;99.90
19348;DHT22;9810;52.480;9.806;2022-10-01T09:33:22;12.10;99.90
19348;DHT22;9810;52.480;9.806;2022-10-01T09:35:55;12.40;99.90
19348;DHT22;9810;52.480;9.806;2022-10-01T09:38:33;12.50;99.90
19348;DHT22;9810;52.480;9.806;2022-10-01T09:41:02;12.70;99.90
19348;DHT22;9810;52.480;9.806;2022-10-01T09:43:31;12.80;99.90
19348;DHT22;9810;52.480;9.806;2022-10-01T09:46:01;12.80;99.90
19348;DHT22;9810;52.480;9.806;2022-10-01T09:48:37;12.80;99.90
19348;DHT22;9810;52.480;9.806;2022-10-01T09:51:09;12.90;99.90
19348;DHT22;9810;52.480;9.806;2022-10-01T09:53:42;13.00;99.90
19348;DHT22;9810;52.480;9.806;2022-10-01T09:56:20;13.10;99.90
19348;DHT22;9810;52.480;9.806;2022-10-01T09:58:52;13.20;99.90
19348;DHT22;9810;52.480;9.806;2022-10-01T10:01:28;13.70;99.90
19348;DHT22;9810;52.480;9.806;2022-10-01T10:03:56;14.10;99.90
19348;DHT22;9810;52.480;9.806;2022-10-01T10:06:28;14.30;99.90
19348;DHT22;9810;52.480;9.806;2022-10-01T10:08:57;14.30;99.90
19348;DHT22;9810;52.480;9.806;2022-10-01T10:11:27;14.30;99.90
19348;DHT22;9810;52.480;9.806;2022-10-01T10:13:57;14.50;99.90
19348;DHT22;9810;52.480;9.806;2022-10-01T10:16:28;15.10;99.90
19348;DHT22;9810;52.480;9.806;2022-10-01T10:19:00;15.80;99.90
19348;DHT22;9810;52.480;9.806;2022-10-01T10:21:29;15.70;99.90
19348;DHT22;9810;52.480;9.806;2022-10-01T10:24:00;15.60;99.90
19348;DHT22;9810;52.480;9.806;2022-10-01T10:26:30;15.60;99.90
19348;DHT22;9810;52.480;9.806;2022-10-01T10:28:58;15.50;99.90
19348;DHT22;9810;52.480;9.806;2022-10-01T10:31:33;15.20;99.90
19348;DHT22;9810;52.480;9.806;2022-10-01T10:34:05;15.40;99.90
19348;DHT22;9810;52.480;9.806;2022-10-01T10:36:34;15.20;99.90
19348;DHT22;9810;52.480;9.806;2022-10-01T10:39:03;14.90;99.90
19348;DHT22;9810;52.480;9.806;2022-10-01T10:41:33;14.70;99.90
19348;DHT22;9810;52.480;9.806;2022-10-01T10:44:02;14.60;99.90
19348;DHT22;9810;52.480;9.806;2022-10-01T10:46:35;14.50;99.90
19348;DHT22;9810;52.480;9.806;2022-10-01T10:49:06;14.50;99.90
19348;DHT22;9810;52.480;9.806;2022-10-01T10:51:48;14.50;99.90
19348;DHT22;9810;52.480;9.806;2022-10-01T10:54:23;14.40;99.90
19348;DHT22;9810;52.480;9.806;2022-10-01T10:56:56;14.40;99.90
19348;DHT22;9810;52.480;9.806;2022-10-01T10:59:28;14.40;99.90
19348;DHT22;9810;52.480;9.806;2022-10-01T11:01:58;14.20;99.90
19348;DHT22;9810;52.480;9.806;2022-10-01T11:04:31;14.20;99.90
19348;DHT22;9810;52.480;9.806;2022-10-01T11:07:02;14.30;99.90
19348;DHT22;9810;52.480;9.806;2022-10-01T11:09:38;14.30;99.90
19348;DHT22;9810;52.480;9.806;2022-10-01T11:12:17;14.40;99.90
19348;DHT22;9810;52.480;9.806;2022-10-01T11:14:54;14.50;99.90
19348;DHT22;9810;52.480;9.806;2022-10-01T11:17:43;14.50;99.90
19348;DHT22;9810;52.480;9.806;2022-10-01T11:20:20;14.60;99.90
19348;DHT22;9810;52.480;9.806;2022-10-01T11:23:04;14.70;99.90
19348;DHT22;9810;52.480;9.806;2022-10-01T11:25:44;14.90;99.90
19348;DHT22;9810;52.480;9.806;2022-10-01T11:28:25;14.80;99.90
19348;DHT22;9810;52.480;9.806;2022-10-01T11:30:59;14.70;99.90
19348;DHT22;9810;52.480;9.806;2022-10-01T11:33:40;14.60;99.90
19348;DHT22;9810;52.480;9.806;2022-10-01T11:36:18;14.60;99.90
19348;DHT22;9810;52.480;9.806;2022-10-01T11:38:53;14.70;99.90
19348;DHT22;9810;52.480;9.806;2022-10-01T11:41:35;15.00;99.90
19348;DHT22;9810;52.480;9.806;2022-10-01T11:44:10;15.20;99.90
19348;DHT22;9810;52.480;9.806;2022-10-01T11:46:46;15.20;99.90
19348;DHT22;9810;52.480;9.806;2022-10-01T11:49:39;15.30;99.90
19348;DHT22;9810;52.480;9.806;2022-10-01T11:52:15;15.60;99.90
19348;DHT22;9810;52.480;9.806;2022-10-01T11:54:55;15.80;99.90
19348;DHT22;9810;52.480;9.806;2022-10-01T11:57:46;16.00;99.90
19348;DHT22;9810;52.480;9.806;2022-10-01T12:00:33;16.20;99.90
19348;DHT22;9810;52.480;9.806;2022-10-01T12:03:05;16.30;99.90
19348;DHT22;9810;52.480;9.806;2022-10-01T12:05:34;16.60;99.90
19348;DHT22;9810;52.480;9.806;2022-10-01T12:08:08;16.60;99.90
19348;DHT22;9810;52.480;9.806;2022-10-01T12:10:42;16.70;99.90
19348;DHT22;9810;52.480;9.806;2022-10-01T12:13:19;16.70;99.90
19348;DHT22;9810;52.480;9.806;2022-10-01T12:15:53;16.80;99.90
19348;DHT22;9810;52.480;9.806;2022-10-01T12:18:26;16.80;99.90
19348;DHT22;9810;52.480;9.806;2022-10-01T12:21:00;16.80;99.90
19348;DHT22;9810;52.480;9.806;2022-10-01T12:23:31;16.60;99.90
19348;DHT22;9810;52.480;9.806;2022-10-01T12:26:06;16.50;99.90
19348;DHT22;9810;52.480;9.806;2022-10-01T12:28:41;16.60;99.90
19348;DHT22;9810;52.480;9.806;2022-10-01T12:31:13;16.50;99.90
19348;DHT22;9810;52.480;9.806;2022-10-01T12:34:02;16.50;99.90
19348;DHT22;9810;52.480;9.806;2022-10-01T12:36:40;16.70;99.90
19348;DHT22;9810;52.480;9.806;2022-10-01T12:39:28;16.80;99.90
19348;DHT22;9810;52.480;9.806;2022-10-01T12:42:21;16.50;99.90
19348;DHT22;9810;52.480;9.806;2022-10-01T12:45:01;16.50;99.90
19348;DHT22;9810;52.480;9.806;2022-10-01T12:47:42;16.70;99.90
19348;DHT22;9810;52.480;9.806;2022-10-01T12:50:21;16.90;99.90
19348;DHT22;9810;52.480;9.806;2022-10-01T12:53:04;16.80;99.90
19348;DHT22;9810;52.480;9.806;2022-10-01T12:55:57;16.60;99.90
19348;DHT22;9810;52.480;9.806;2022-10-01T12:58:50;16.40;99.90
19348;DHT22;9810;52.480;9.806;2022-10-01T13:01:35;16.40;99.90
19348;DHT22;9810;52.480;9.806;2022-10-01T13:04:28;16.80;99.90
19348;DHT22;9810;52.480;9.806;2022-10-01T13:07:17;16.70;99.90
19348;DHT22;9810;52.480;9.806;2022-10-01T13:10:04;16.80;99.90
19348;DHT22;9810;52.480;9.806;2022-10-01T13:12:48;16.90;99.90
19348;DHT22;9810;52.480;9.806;2022-10-01T13:15:22;16.90;99.90
19348;DHT22;9810;52.480;9.806;2022-10-01T13:17:53;16.80;99.90
19348;DHT22;9810;52.480;9.806;2022-10-01T13:20:28;16.90;99.90
19348;DHT22;9810;52.480;9.806;2022-10-01T13:23:02;16.90;99.90
19348;DHT22;9810;52.480;9.806;2022-10-01T13:25:36;16.70;99.90
19348;DHT22;9810;52.480;9.806;2022-10-01T13:28:11;16.50;99.90
19348;DHT22;9810;52.480;9.806;2022-10-01T13:30:51;16.50;99.90
19348;DHT22;9810;52.480;9.806;2022-10-01T13:33:22;16.40;99.90
19348;DHT22;9810;52.480;9.806;2022-10-01T13:35:56;16.30;99.90
19348;DHT22;9810;52.480;9.806;2022-10-01T13:38:26;16.40;99.90
19348;DHT22;9810;52.480;9.806;2022-10-01T13:41:02;16.30;99.90
19348;DHT22;9810;52.480;9.806;2022-10-01T13:43:31;16.20;99.90
19348;DHT22;9810;52.480;9.806;2022-10-01T13:46:04;16.10;99.90
19348;DHT22;9810;52.480;9.806;2022-10-01T13:48:33;16.00;99.90
19348;DHT22;9810;52.480;9.806;2022-10-01T13:51:04;15.80;99.90
19348;DHT22;9810;52.480;9.806;2022-10-01T13:53:33;15.90;99.90
19348;DHT22;9810;52.480;9.806;2022-10-01T13:56:04;15.90;99.90
19348;DHT22;9810;52.480;9.806;2022-10-01T13:58:38;15.90;99.90
19348;DHT22;9810;52.480;9.806;2022-10-01T14:01:26;15.90;99.90
19348;DHT22;9810;52.480;9.806;2022-10-01T14:04:00;15.90;99.90
19348;DHT22;9810;52.480;9.806;2022-10-01T14:06:37;15.90;99.90
19348;DHT22;9810;52.480;9.806;2022-10-01T14:09:12;15.80;99.90
19348;DHT22;9810;52.480;9.806;2022-10-01T14:11:46;15.90;99.90
19348;DHT22;9810;52.480;9.806;2022-10-01T14:14:34;15.60;99.90
19348;DHT22;9810;52.480;9.806;2022-10-01T14:17:20;14.80;99.90
19348;DHT22;9810;52.480;9.806;2022-10-01T14:19:48;14.00;99.90
19348;DHT22;9810;52.480;9.806;2022-10-01T14:22:25;13.40;99.90
19348;DHT22;9810;52.480;9.806;2022-10-01T14:25:11;13.00;99.90
19348;DHT22;9810;52.480;9.806;2022-10-01T14:28:09;12.90;99.90
19348;DHT22;9810;52.480;9.806;2022-10-01T14:30:43;13.00;99.90
19348;DHT22;9810;52.480;9.806;2022-10-01T14:36:15;12.80;99.90
19348;DHT22;9810;52.480;9.806;2022-10-01T14:38:42;13.00;99.90
19348;DHT22;9810;52.480;9.806;2022-10-01T14:41:16;12.90;99.90
19348;DHT22;9810;52.480;9.806;2022-10-01T14:43:45;13.10;99.90
19348;DHT22;9810;52.480;9.806;2022-10-01T14:46:15;12.90;99.90
19348;DHT22;9810;52.480;9.806;2022-10-01T14:48:43;12.80;99.90
19348;DHT22;9810;52.480;9.806;2022-10-01T14:51:24;12.70;99.90
19348;DHT22;9810;52.480;9.806;2022-10-01T14:53:52;12.50;99.90
19348;DHT22;9810;52.480;9.806;2022-10-01T14:56:20;12.40;99.90
19348;DHT22;9810;52.480;9.806;2022-10-01T14:58:53;12.30;99.90
19348;DHT22;9810;52.480;9.806;2022-10-01T15:01:22;12.40;99.90
19348;DHT22;9810;52.480;9.806;2022-10-01T15:03:51;12.50;99.90
19348;DHT22;9810;52.480;9.806;2022-10-01T15:06:20;12.50;99.90
19348;DHT22;9810;52.480;9.806;2022-10-01T15:08:49;12.60;99.90
19348;DHT22;9810;52.480;9.806;2022-10-01T15:11:18;12.70;99.90
19348;DHT22;9810;52.480;9.806;2022-10-01T15:13:50;12.60;99.90
19348;DHT22;9810;52.480;9.806;2022-10-01T15:16:20;12.60;99.90
19348;DHT22;9810;52.480;9.806;2022-10-01T15:18:50;12.80;99.90
19348;DHT22;9810;52.480;9.806;2022-10-01T15:21:21;12.80;99.90
19348;DHT22;9810;52.480;9.806;2022-10-01T15:23:49;12.80;99.90
19348;DHT22;9810;52.480;9.806;2022-10-01T15:26:20;12.80;99.90
19348;DHT22;9810;52.480;9.806;2022-10-01T15:28:59;12.80;99.90
19348;DHT22;9810;52.480;9.806;2022-10-01T15:31:27;12.90;99.90
19348;DHT22;9810;52.480;9.806;2022-10-01T15:33:54;12.70;99.90
19348;DHT22;9810;52.480;9.806;2022-10-01T15:36:21;12.60;99.90
19348;DHT22;9810;52.480;9.806;2022-10-01T15:38:49;12.80;99.90
19348;DHT22;9810;52.480;9.806;2022-10-01T15:41:22;12.80;99.90
19348;DHT22;9810;52.480;9.806;2022-10-01T15:43:52;12.90;99.90
19348;DHT22;9810;52.480;9.806;2022-10-01T15:46:25;12.90;99.90
19348;DHT22;9810;52.480;9.806;2022-10-01T15:49:15;12.90;99.90
19348;DHT22;9810;52.480;9.806;2022-10-01T15:51:47;12.80;99.90
19348;DHT22;9810;52.480;9.806;2022-10-01T15:54:38;12.90;99.90
19348;DHT22;9810;52.480;9.806;2022-10-01T15:57:07;12.90;99.90
19348;DHT22;9810;52.480;9.806;2022-10-01T15:59:39;13.00;99.90
19348;DHT22;9810;52.480;9.806;2022-10-01T16:02:08;12.90;99.90
19348;DHT22;9810;52.480;9.806;2022-10-01T16:04:36;12.90;99.90
19348;DHT22;9810;52.480;9.806;2022-10-01T16:07:03;12.80;99.90
19348;DHT22;9810;52.480;9.806;2022-10-01T16:09:31;12.90;99.90
19348;DHT22;9810;52.480;9.806;2022-10-01T16:12:00;12.90;99.90
19348;DHT22;9810;52.480;9.806;2022-10-01T16:14:34;12.90;99.90
19348;DHT22;9810;52.480;9.806;2022-10-01T16:17:43;12.80;99.90
19348;DHT22;9810;52.480;9.806;2022-10-01T16:20:33;12.80;99.90
19348;DHT22;9810;52.480;9.806;2022-10-01T16:23:32;12.90;99.90
19348;DHT22;9810;52.480;9.806;2022-10-01T16:26:00;12.70;99.90